Time;durP1;ratioP1;P1;durP2;ratioP2;P2;SDS_P1;SDS_P2;PMS_P1;PMS_P2;Temp;Humidity;BMP_temperature;BMP_pressure;BME280_temperature;BME280_humidity;BME280_pressure;Samples;Min_cycle;Max_cycle;Signal;HPM_P1;HPM_P2
2023/06/02 00:01:02;;;;;;;18.53;6.80;;;;;;;;;;5095456;28;20435;-59
2023/06/02 00:03:31;;;;;;;9.83;5.17;;;;;;;;;;5094670;28;20467;-59
2023/06/02 00:05:59;;;;;;;27.67;12.40;;;;;;;;;;5095158;28;20448;-59
2023/06/02 00:08:26;;;;;;;22.00;9.50;;;;;;;;;;5094971;28;20978;-58
2023/06/02 00:10:53;;;;;;;19.73;6.03;;;;;;;;;;5095317;28;20488;-58
2023/06/02 00:13:20;;;;;;;10.77;5.80;;;;;;;;;;5095124;28;20453;-58
2023/06/02 00:15:47;;;;;;;17.10;5.90;;;;;;;;;;5095044;28;20423;-59
2023/06/02 00:18:15;;;;;;;17.43;6.93;;;;;;;;;;5095023;28;20449;-59
2023/06/02 00:20:44;;;;;;;9.60;4.83;;;;;;;;;;5094915;28;20428;-59
2023/06/02 00:23:11;;;;;;;7.30;3.50;;;;;;;;;;5094844;28;20906;-58
2023/06/02 00:25:38;;;;;;;5.60;2.40;;;;;;;;;;5094927;28;20482;-58
2023/06/02 00:28:05;;;;;;;8.00;2.70;;;;;;;;;;5094868;28;20450;-58
2023/06/02 00:30:31;;;;;;;7.27;3.37;;;;;;;;;;5094743;28;20457;-58
2023/06/02 00:32:59;;;;;;;6.80;3.23;;;;;;;;;;5094670;28;20450;-58
2023/06/02 00:35:27;;;;;;;8.67;3.20;;;;;;;;;;5094457;28;20546;-58
2023/06/02 00:37:54;;;;;;;6.83;2.80;;;;;;;;;;5094748;28;20475;-58
2023/06/02 00:40:21;;;;;;;10.23;2.77;;;;;;;;;;5094638;28;20448;-58
2023/06/02 00:42:49;;;;;;;11.73;3.67;;;;;;;;;;5094436;28;20961;-58
2023/06/02 00:45:16;;;;;;;10.10;3.57;;;;;;;;;;5094447;28;20459;-58
2023/06/02 00:47:43;;;;;;;4.70;2.80;;;;;;;;;;5094308;28;20533;-58
2023/06/02 00:50:10;;;;;;;10.80;3.50;;;;;;;;;;5094290;28;20498;-59
2023/06/02 00:52:40;;;;;;;11.07;3.03;;;;;;;;;;5094491;28;20448;-59
2023/06/02 00:55:07;;;;;;;5.73;3.07;;;;;;;;;;5094088;28;20488;-59
2023/06/02 00:57:40;;;;;;;7.67;2.73;;;;;;;;;;5094206;28;20467;-59
2023/06/02 01:00:09;;;;;;;13.50;3.13;;;;;;;;;;5094190;28;20457;-60
2023/06/02 01:02:36;;;;;;;7.20;2.60;;;;;;;;;;5093992;28;20444;-59
2023/06/02 01:05:06;;;;;;;10.53;2.90;;;;;;;;;;5094287;28;20450;-59
2023/06/02 01:07:34;;;;;;;9.13;3.00;;;;;;;;;;5094074;28;20452;-59
2023/06/02 01:10:04;;;;;;;11.03;2.90;;;;;;;;;;5094077;28;20879;-59
2023/06/02 01:12:31;;;;;;;7.63;3.03;;;;;;;;;;5094013;28;20534;-59
2023/06/02 01:14:58;;;;;;;9.30;3.03;;;;;;;;;;5092731;28;20570;-59
2023/06/02 01:17:30;;;;;;;7.33;3.00;;;;;;;;;;5093984;28;20454;-59
2023/06/02 01:20:05;;;;;;;7.30;3.10;;;;;;;;;;5093876;28;20444;-59
2023/06/02 01:22:34;;;;;;;17.17;2.90;;;;;;;;;;5093850;28;20448;-59
2023/06/02 01:25:02;;;;;;;12.40;3.20;;;;;;;;;;5093743;28;20440;-59
2023/06/02 01:27:30;;;;;;;16.07;4.57;;;;;;;;;;5093551;28;20505;-59
2023/06/02 01:29:56;;;;;;;6.60;3.00;;;;;;;;;;5093524;28;20802;-59
2023/06/02 01:32:26;;;;;;;15.80;3.87;;;;;;;;;;5093718;28;20570;-59
2023/06/02 01:34:58;;;;;;;11.37;3.30;;;;;;;;;;5093567;28;20525;-59
2023/06/02 01:37:28;;;;;;;6.60;3.10;;;;;;;;;;5093524;28;20542;-59
2023/06/02 01:39:55;;;;;;;5.90;2.63;;;;;;;;;;5093521;28;20718;-60
2023/06/02 01:42:24;;;;;;;11.10;3.53;;;;;;;;;;5093350;28;20447;-59
2023/06/02 01:44:51;;;;;;;15.97;3.10;;;;;;;;;;5093328;28;20488;-59
2023/06/02 01:47:19;;;;;;;10.93;3.97;;;;;;;;;;5093179;28;20954;-59
2023/06/02 01:49:46;;;;;;;10.33;3.70;;;;;;;;;;5093393;28;20418;-59
2023/06/02 01:52:13;;;;;;;10.47;3.37;;;;;;;;;;5093284;28;20505;-59
2023/06/02 01:54:40;;;;;;;10.20;3.27;;;;;;;;;;5093074;28;20996;-59
2023/06/02 01:57:10;;;;;;;14.77;3.93;;;;;;;;;;5093314;28;20448;-59
2023/06/02 01:59:38;;;;;;;12.20;3.87;;;;;;;;;;5093315;28;20531;-59
2023/06/02 02:02:05;;;;;;;14.57;4.40;;;;;;;;;;5093250;28;20538;-59
2023/06/02 02:04:32;;;;;;;14.80;3.30;;;;;;;;;;5093173;28;20417;-59
2023/06/02 02:07:01;;;;;;;12.73;3.83;;;;;;;;;;5092976;28;20540;-60
2023/06/02 02:09:28;;;;;;;10.40;3.90;;;;;;;;;;5092920;28;20450;-59
2023/06/02 02:11:55;;;;;;;12.40;3.33;;;;;;;;;;5093163;28;20527;-59
2023/06/02 02:14:22;;;;;;;7.00;3.50;;;;;;;;;;5093240;28;20478;-61
2023/06/02 02:16:51;;;;;;;13.47;3.83;;;;;;;;;;5093217;28;20505;-59
2023/06/02 02:19:18;;;;;;;11.13;3.00;;;;;;;;;;5093063;28;20451;-59
2023/06/02 02:21:45;;;;;;;12.73;3.70;;;;;;;;;;5092833;28;20422;-59
2023/06/02 02:24:13;;;;;;;8.37;3.30;;;;;;;;;;5093153;28;20451;-59
2023/06/02 02:26:40;;;;;;;11.00;3.63;;;;;;;;;;5096634;28;20868;-59
2023/06/02 02:29:07;;;;;;;19.57;4.53;;;;;;;;;;5097180;28;20478;-59
2023/06/02 02:31:36;;;;;;;15.13;3.73;;;;;;;;;;5097057;28;20447;-59
2023/06/02 02:34:04;;;;;;;8.50;3.10;;;;;;;;;;5096991;28;20991;-59
2023/06/02 02:36:32;;;;;;;10.03;3.60;;;;;;;;;;5096808;28;20450;-59
2023/06/02 02:38:59;;;;;;;11.43;4.53;;;;;;;;;;5097014;28;20453;-59
2023/06/02 02:41:27;;;;;;;16.80;4.03;;;;;;;;;;5096986;28;20428;-59
2023/06/02 02:43:53;;;;;;;7.73;3.70;;;;;;;;;;5096829;28;20814;-59
2023/06/02 02:46:20;;;;;;;14.00;4.50;;;;;;;;;;5096717;28;20447;-59
2023/06/02 02:48:47;;;;;;;12.57;3.27;;;;;;;;;;5096617;28;20537;-60
2023/06/02 02:51:15;;;;;;;16.47;3.13;;;;;;;;;;5096806;28;20410;-59
2023/06/02 02:53:42;;;;;;;11.60;4.07;;;;;;;;;;5096767;28;20447;-59
2023/06/02 02:56:09;;;;;;;11.00;4.00;;;;;;;;;;5096153;28;21085;-59
2023/06/02 02:58:37;;;;;;;15.33;3.33;;;;;;;;;;5096594;28;20530;-59
2023/06/02 03:01:04;;;;;;;8.57;3.20;;;;;;;;;;5096518;28;20462;-59
2023/06/02 03:03:32;;;;;;;13.13;3.20;;;;;;;;;;5096297;28;20451;-59
2023/06/02 03:06:01;;;;;;;14.17;3.00;;;;;;;;;;5096417;28;20450;-60
2023/06/02 03:08:29;;;;;;;13.40;3.47;;;;;;;;;;5096487;28;20507;-59
2023/06/02 03:10:56;;;;;;;11.30;4.70;;;;;;;;;;5096371;28;20454;-59
2023/06/02 03:13:23;;;;;;;10.40;3.10;;;;;;;;;;5096256;28;20545;-59
2023/06/02 03:15:50;;;;;;;10.27;3.37;;;;;;;;;;5096114;28;20778;-59
2023/06/02 03:18:17;;;;;;;12.00;4.03;;;;;;;;;;5096089;28;20518;-59
2023/06/02 03:20:48;;;;;;;13.93;4.00;;;;;;;;;;5096203;28;20459;-59
2023/06/02 03:23:16;;;;;;;12.00;3.73;;;;;;;;;;5096256;28;20886;-59
2023/06/02 03:25:44;;;;;;;11.33;3.37;;;;;;;;;;5095928;28;20458;-59
2023/06/02 03:28:11;;;;;;;12.53;3.73;;;;;;;;;;5095843;28;20458;-59
2023/06/02 03:30:38;;;;;;;10.23;3.30;;;;;;;;;;5095728;28;20450;-59
2023/06/02 03:33:05;;;;;;;8.50;3.00;;;;;;;;;;5095987;28;20447;-60
2023/06/02 03:35:32;;;;;;;17.53;4.00;;;;;;;;;;5095816;28;20489;-59
2023/06/02 03:37:59;;;;;;;13.70;3.20;;;;;;;;;;5094617;28;20540;-59
2023/06/02 03:40:26;;;;;;;10.40;3.70;;;;;;;;;;5095730;28;20505;-59
2023/06/02 03:42:54;;;;;;;9.73;3.50;;;;;;;;;;5095582;28;20447;-59
2023/06/02 03:45:21;;;;;;;8.53;3.50;;;;;;;;;;5095595;28;21001;-58
2023/06/02 03:47:48;;;;;;;12.60;3.83;;;;;;;;;;5095626;28;20447;-58
2023/06/02 03:50:14;;;;;;;12.20;3.70;;;;;;;;;;5095549;28;20447;-58
2023/06/02 03:52:44;;;;;;;13.90;4.20;;;;;;;;;;5095436;28;20951;-58
2023/06/02 03:55:11;;;;;;;8.53;3.00;;;;;;;;;;5095185;28;20456;-58
2023/06/02 03:57:38;;;;;;;6.70;3.20;;;;;;;;;;5095343;28;20426;-58
2023/06/02 04:00:10;;;;;;;14.70;3.50;;;;;;;;;;5095518;28;20452;-58
2023/06/02 04:02:37;;;;;;;9.63;3.60;;;;;;;;;;5095381;28;20443;-59
2023/06/02 04:05:04;;;;;;;10.73;3.23;;;;;;;;;;5095303;28;20542;-59
2023/06/02 04:07:31;;;;;;;13.00;5.00;;;;;;;;;;5095170;28;20446;-59
2023/06/02 04:10:00;;;;;;;24.03;4.30;;;;;;;;;;5095087;28;20426;-59
2023/06/02 04:12:28;;;;;;;11.03;3.77;;;;;;;;;;5095266;28;20418;-59
2023/06/02 04:14:57;;;;;;;10.10;3.37;;;;;;;;;;5095097;28;20533;-59
2023/06/02 04:17:26;;;;;;;11.87;3.50;;;;;;;;;;5095040;28;20474;-58
2023/06/02 04:19:53;;;;;;;11.57;3.30;;;;;;;;;;5094886;28;20928;-59
2023/06/02 04:22:20;;;;;;;8.03;3.50;;;;;;;;;;5094862;28;20459;-59
2023/06/02 04:24:47;;;;;;;10.20;3.70;;;;;;;;;;5094732;28;20451;-59
2023/06/02 04:27:15;;;;;;;12.83;4.33;;;;;;;;;;5094878;28;20559;-59
2023/06/02 04:29:42;;;;;;;13.20;3.30;;;;;;;;;;5095029;28;20805;-59
2023/06/02 04:32:09;;;;;;;10.43;3.60;;;;;;;;;;5094804;28;20447;-59
2023/06/02 04:34:40;;;;;;;10.60;4.00;;;;;;;;;;5094726;28;20452;-59
2023/06/02 04:37:08;;;;;;;9.53;3.37;;;;;;;;;;5094528;28;20540;-59
2023/06/02 04:39:36;;;;;;;14.10;3.53;;;;;;;;;;5094414;28;20452;-59
2023/06/02 04:42:05;;;;;;;11.60;3.40;;;;;;;;;;5094441;28;21031;-59
2023/06/02 04:44:31;;;;;;;8.83;3.50;;;;;;;;;;5094543;28;20454;-59
2023/06/02 04:46:58;;;;;;;10.00;4.40;;;;;;;;;;5094285;28;20956;-58
2023/06/02 04:49:26;;;;;;;8.17;3.80;;;;;;;;;;5094136;28;20542;-59
2023/06/02 04:51:55;;;;;;;8.93;3.00;;;;;;;;;;5094212;28;20452;-59
2023/06/02 04:54:22;;;;;;;10.87;4.23;;;;;;;;;;5094336;28;20448;-59
2023/06/02 04:56:49;;;;;;;25.20;4.30;;;;;;;;;;5093934;28;20494;-59
2023/06/02 04:59:16;;;;;;;8.00;3.57;;;;;;;;;;5094377;28;20543;-59
2023/06/02 05:01:44;;;;;;;7.27;3.13;;;;;;;;;;5094165;28;20939;-59
2023/06/02 05:04:10;;;;;;;17.27;4.37;;;;;;;;;;5093944;28;20451;-59
2023/06/02 05:06:38;;;;;;;15.70;4.10;;;;;;;;;;5093753;28;20938;-58
2023/06/02 05:09:08;;;;;;;8.10;3.20;;;;;;;;;;5094091;28;20447;-59
2023/06/02 05:11:35;;;;;;;9.30;2.93;;;;;;;;;;5094027;28;20418;-59
2023/06/02 05:14:02;;;;;;;13.60;4.60;;;;;;;;;;5093893;28;20455;-59
2023/06/02 05:16:30;;;;;;;11.10;4.00;;;;;;;;;;5093654;28;20482;-59
2023/06/02 05:18:57;;;;;;;14.53;4.10;;;;;;;;;;5093668;28;20488;-59
2023/06/02 05:21:24;;;;;;;13.37;3.53;;;;;;;;;;5093921;28;20508;-58
2023/06/02 05:23:51;;;;;;;8.33;4.20;;;;;;;;;;5093860;28;20459;-58
2023/06/02 05:26:19;;;;;;;10.93;3.47;;;;;;;;;;5093698;28;20915;-60
2023/06/02 05:28:46;;;;;;;17.60;4.90;;;;;;;;;;5093642;28;20792;-59
2023/06/02 05:31:14;;;;;;;12.40;3.60;;;;;;;;;;5093516;28;20451;-59
2023/06/02 05:33:41;;;;;;;5.83;2.90;;;;;;;;;;5093361;28;20491;-59
2023/06/02 05:36:08;;;;;;;19.07;3.93;;;;;;;;;;5093448;28;20458;-59
2023/06/02 05:38:35;;;;;;;15.70;4.20;;;;;;;;;;5093559;28;20521;-59
2023/06/02 05:41:02;;;;;;;12.17;3.40;;;;;;;;;;5093433;28;20828;-58
2023/06/02 05:43:30;;;;;;;14.80;3.73;;;;;;;;;;5093445;28;20547;-59
2023/06/02 05:45:57;;;;;;;16.73;4.40;;;;;;;;;;5093114;28;20451;-59
2023/06/02 05:48:24;;;;;;;13.93;4.40;;;;;;;;;;5093477;28;20447;-59
2023/06/02 05:50:51;;;;;;;11.83;4.03;;;;;;;;;;5093367;28;20454;-59
2023/06/02 05:53:18;;;;;;;14.30;3.90;;;;;;;;;;5093266;28;20444;-59
2023/06/02 05:55:45;;;;;;;12.17;3.73;;;;;;;;;;5092803;28;20505;-59
2023/06/02 05:58:12;;;;;;;13.50;4.80;;;;;;;;;;5093073;28;20477;-59
2023/06/02 06:00:40;;;;;;;14.43;4.10;;;;;;;;;;5092421;28;20505;-58
2023/06/02 06:03:07;;;;;;;11.73;4.40;;;;;;;;;;5093170;28;20454;-59
2023/06/02 06:05:34;;;;;;;16.97;4.53;;;;;;;;;;5093155;28;20443;-58
2023/06/02 06:08:01;;;;;;;12.23;4.20;;;;;;;;;;5092967;28;20417;-59
2023/06/02 06:10:28;;;;;;;15.27;4.40;;;;;;;;;;5092967;28;20537;-58
2023/06/02 06:12:55;;;;;;;11.93;3.60;;;;;;;;;;5092939;28;20534;-59
2023/06/02 06:15:22;;;;;;;15.80;4.37;;;;;;;;;;5092967;28;20849;-59
2023/06/02 06:17:51;;;;;;;7.93;3.53;;;;;;;;;;5092863;28;20482;-59
2023/06/02 06:20:18;;;;;;;16.73;4.07;;;;;;;;;;5092948;28;20446;-59
2023/06/02 06:22:45;;;;;;;12.20;4.00;;;;;;;;;;5092900;28;20446;-59
2023/06/02 06:25:12;;;;;;;18.40;5.00;;;;;;;;;;5092911;28;20544;-59
2023/06/02 06:27:39;;;;;;;16.07;4.97;;;;;;;;;;5092605;28;20504;-58
2023/06/02 06:30:06;;;;;;;10.27;4.27;;;;;;;;;;5092924;28;20548;-59
2023/06/02 06:32:33;;;;;;;10.83;4.30;;;;;;;;;;5092664;28;20487;-60
2023/06/02 06:35:02;;;;;;;12.10;3.80;;;;;;;;;;5092733;28;20919;-59
2023/06/02 06:37:29;;;;;;;11.07;4.70;;;;;;;;;;5092574;28;20572;-59
2023/06/02 06:39:56;;;;;;;9.57;4.37;;;;;;;;;;5092688;28;20447;-59
2023/06/02 06:42:23;;;;;;;12.40;4.80;;;;;;;;;;5092596;28;20458;-58
2023/06/02 06:44:50;;;;;;;14.07;4.30;;;;;;;;;;5092764;28;20550;-59
2023/06/02 06:47:17;;;;;;;13.70;4.03;;;;;;;;;;5092723;28;20453;-59
2023/06/02 06:49:44;;;;;;;11.83;4.30;;;;;;;;;;5092591;28;20452;-58
2023/06/02 06:52:12;;;;;;;21.00;4.23;;;;;;;;;;5092523;28;20428;-58
2023/06/02 06:54:39;;;;;;;15.20;4.70;;;;;;;;;;5092421;28;20943;-59
2023/06/02 06:57:06;;;;;;;8.53;4.00;;;;;;;;;;5092434;28;20574;-59
2023/06/02 06:59:33;;;;;;;11.10;4.57;;;;;;;;;;5092467;28;20454;-59
2023/06/02 07:02:00;;;;;;;10.87;5.60;;;;;;;;;;5092574;28;20498;-59
2023/06/02 07:04:28;;;;;;;15.90;5.10;;;;;;;;;;5092567;28;20876;-59
2023/06/02 07:06:54;;;;;;;9.57;4.93;;;;;;;;;;5092385;28;20456;-59
2023/06/02 07:09:23;;;;;;;19.57;7.10;;;;;;;;;;5092277;28;20454;-59
2023/06/02 07:11:50;;;;;;;20.97;6.07;;;;;;;;;;5092554;28;20447;-59
2023/06/02 07:14:17;;;;;;;10.80;5.73;;;;;;;;;;5096218;28;20430;-57
2023/06/02 07:16:46;;;;;;;14.13;5.50;;;;;;;;;;5095829;28;20509;-59
2023/06/02 07:19:13;;;;;;;10.90;5.80;;;;;;;;;;5095711;28;20449;-59
2023/06/02 07:21:40;;;;;;;14.90;5.10;;;;;;;;;;5096448;28;20447;-57
2023/06/02 07:24:07;;;;;;;14.20;5.73;;;;;;;;;;5095867;28;20425;-56
2023/06/02 07:26:35;;;;;;;14.30;5.50;;;;;;;;;;5095969;28;20816;-58
2023/06/02 07:29:02;;;;;;;10.80;4.90;;;;;;;;;;5095984;28;20452;-58
2023/06/02 07:31:29;;;;;;;11.23;5.20;;;;;;;;;;5095847;28;20452;-58
2023/06/02 07:33:56;;;;;;;9.70;5.43;;;;;;;;;;5095773;28;20974;-57
2023/06/02 07:36:25;;;;;;;10.90;5.90;;;;;;;;;;5095428;28;20471;-58
2023/06/02 07:38:52;;;;;;;10.10;5.80;;;;;;;;;;5095642;28;20599;-57
2023/06/02 07:41:21;;;;;;;11.03;6.00;;;;;;;;;;5095555;28;20453;-56
2023/06/02 07:43:49;;;;;;;17.73;6.60;;;;;;;;;;5095561;28;20444;-56
2023/06/02 07:46:16;;;;;;;11.47;6.27;;;;;;;;;;5095123;28;20931;-58
2023/06/02 07:48:43;;;;;;;11.30;6.03;;;;;;;;;;5098385;28;20450;-58
2023/06/02 07:51:10;;;;;;;24.53;6.83;;;;;;;;;;5115726;28;21010;-58
2023/06/02 07:53:37;;;;;;;19.77;7.20;;;;;;;;;;5115903;28;20445;-58
2023/06/02 07:56:04;;;;;;;15.37;7.37;;;;;;;;;;5115568;28;20561;-58
2023/06/02 07:58:31;;;;;;;14.40;8.17;;;;;;;;;;5115590;28;20530;-58
2023/06/02 08:00:59;;;;;;;14.30;7.00;;;;;;;;;;5115088;28;20453;-60
2023/06/02 08:03:28;;;;;;;16.50;7.77;;;;;;;;;;5115572;28;20447;-59
2023/06/02 08:05:54;;;;;;;15.47;7.50;;;;;;;;;;5115613;28;20442;-58
2023/06/02 08:08:21;;;;;;;12.83;8.17;;;;;;;;;;5115527;28;20892;-56
2023/06/02 08:10:48;;;;;;;16.00;9.27;;;;;;;;;;5115599;28;20447;-57
2023/06/02 08:13:15;;;;;;;18.33;9.97;;;;;;;;;;5115492;28;20442;-57
2023/06/02 08:15:42;;;;;;;14.73;9.70;;;;;;;;;;5115434;28;20443;-58
2023/06/02 08:18:14;;;;;;;21.27;10.73;;;;;;;;;;5094853;28;20475;-59
2023/06/02 08:20:42;;;;;;;13.17;9.03;;;;;;;;;;5101189;28;20550;-58
2023/06/02 08:23:09;;;;;;;25.33;11.77;;;;;;;;;;5103963;28;20498;-59
2023/06/02 08:25:38;;;;;;;15.13;10.67;;;;;;;;;;5096251;28;20518;-58
2023/06/02 08:28:06;;;;;;;16.27;11.27;;;;;;;;;;5095859;28;20452;-59
2023/06/02 08:30:33;;;;;;;17.30;11.60;;;;;;;;;;5094315;28;20845;-58
2023/06/02 08:33:02;;;;;;;10.50;9.50;;;;;;;;;;5094543;28;20459;-57
2023/06/02 08:35:30;;;;;;;16.53;10.53;;;;;;;;;;5094729;28;20427;-59
2023/06/02 08:37:57;;;;;;;15.37;10.40;;;;;;;;;;5093616;28;20978;-58
2023/06/02 08:40:26;;;;;;;16.50;10.33;;;;;;;;;;5093970;28;20571;-59
2023/06/02 08:42:53;;;;;;;10.90;9.80;;;;;;;;;;5093814;28;20451;-58
2023/06/02 08:45:22;;;;;;;15.40;9.20;;;;;;;;;;5094336;28;20451;-57
2023/06/02 08:47:52;;;;;;;15.67;9.23;;;;;;;;;;5094137;28;20509;-58
2023/06/02 08:50:21;;;;;;;13.37;9.20;;;;;;;;;;5093544;28;20414;-58
2023/06/02 08:52:50;;;;;;;17.07;9.10;;;;;;;;;;5092465;28;20432;-58
2023/06/02 08:55:17;;;;;;;13.00;9.87;;;;;;;;;;5092347;28;21077;-58
2023/06/02 08:57:44;;;;;;;10.83;8.50;;;;;;;;;;5102842;28;20826;-58
2023/06/02 09:00:11;;;;;;;10.20;9.10;;;;;;;;;;5114477;28;20778;-58
2023/06/02 09:02:38;;;;;;;11.97;9.00;;;;;;;;;;5114420;28;20460;-57
2023/06/02 09:05:06;;;;;;;9.30;8.40;;;;;;;;;;5114451;28;20600;-57
2023/06/02 09:07:33;;;;;;;9.27;8.43;;;;;;;;;;5114243;28;20445;-57
2023/06/02 09:10:03;;;;;;;12.37;8.10;;;;;;;;;;5113739;28;20450;-58
2023/06/02 09:12:30;;;;;;;9.37;7.83;;;;;;;;;;5107402;28;20444;-58
2023/06/02 09:15:09;;;;;;;8.90;7.30;;;;;;;;;;5093976;28;20806;-57
2023/06/02 09:17:36;;;;;;;8.00;7.30;;;;;;;;;;5093648;28;20554;-57
2023/06/02 09:20:10;;;;;;;10.13;9.13;;;;;;;;;;5093262;28;20444;-57
2023/06/02 09:22:37;;;;;;;8.93;7.60;;;;;;;;;;5093526;28;20506;-58
2023/06/02 09:25:21;;;;;;;9.57;8.70;;;;;;;;;;5093728;28;20536;-58
2023/06/02 09:27:51;;;;;;;8.63;8.03;;;;;;;;;;5093570;28;20426;-57
2023/06/02 09:30:18;;;;;;;8.33;7.27;;;;;;;;;;5093326;28;20440;-58
2023/06/02 09:32:52;;;;;;;7.87;7.27;;;;;;;;;;5093329;28;20539;-57
2023/06/02 09:35:33;;;;;;;6.03;5.47;;;;;;;;;;5090210;28;20448;-54
2023/06/02 09:38:00;;;;;;;5.40;4.77;;;;;;;;;;5090912;28;20562;-54
2023/06/02 09:40:29;;;;;;;4.90;4.60;;;;;;;;;;5092851;28;20527;-57
2023/06/02 09:42:56;;;;;;;5.67;5.17;;;;;;;;;;5090413;28;20513;-58
2023/06/02 09:45:25;;;;;;;6.13;5.53;;;;;;;;;;5092843;28;20471;-58
2023/06/02 09:47:52;;;;;;;6.23;5.00;;;;;;;;;;5092906;28;20804;-58
2023/06/02 09:50:42;;;;;;;5.13;4.73;;;;;;;;;;5092953;28;20527;-53
2023/06/02 09:53:13;;;;;;;5.20;4.20;;;;;;;;;;5086839;28;20445;-58
2023/06/02 09:55:42;;;;;;;4.83;4.37;;;;;;;;;;5092972;28;20575;-58
2023/06/02 09:58:09;;;;;;;4.70;4.30;;;;;;;;;;5092801;28;20490;-59
2023/06/02 10:00:36;;;;;;;3.20;2.90;;;;;;;;;;5094850;28;20455;-59
2023/06/02 10:03:03;;;;;;;2.53;2.33;;;;;;;;;;5094476;28;20901;-55
2023/06/02 10:05:31;;;;;;;2.53;2.33;;;;;;;;;;5094744;28;20540;-57
2023/06/02 10:08:02;;;;;;;2.53;2.30;;;;;;;;;;5092965;28;20539;-57
2023/06/02 10:10:36;;;;;;;5.67;2.10;;;;;;;;;;5092833;28;20540;-56
2023/06/02 10:13:16;;;;;;;1.80;1.70;;;;;;;;;;5093015;28;20447;-59
2023/06/02 10:15:48;;;;;;;3.67;2.13;;;;;;;;;;5092686;28;20440;-59
2023/06/02 10:18:22;;;;;;;1.90;1.57;;;;;;;;;;5091995;28;20476;-59
2023/06/02 10:20:56;;;;;;;3.23;1.57;;;;;;;;;;5090073;28;20452;-59
2023/06/02 10:23:30;;;;;;;3.07;2.60;;;;;;;;;;5092570;28;20775;-58
2023/06/02 10:26:10;;;;;;;2.87;1.60;;;;;;;;;;5092463;28;20451;-58
2023/06/02 10:28:38;;;;;;;2.53;1.80;;;;;;;;;;5090800;28;20453;-58
2023/06/02 10:31:08;;;;;;;3.13;1.33;;;;;;;;;;5092370;28;20971;-58
2023/06/02 10:33:42;;;;;;;4.07;1.43;;;;;;;;;;5090449;28;20979;-58
2023/06/02 10:36:09;;;;;;;2.73;1.70;;;;;;;;;;5091300;28;20473;-58
2023/06/02 10:38:38;;;;;;;1.50;1.20;;;;;;;;;;5089422;28;20485;-58
2023/06/02 10:41:05;;;;;;;5.67;1.30;;;;;;;;;;5092098;28;20448;-58
2023/06/02 10:43:33;;;;;;;2.20;1.20;;;;;;;;;;5092320;28;20453;-58
2023/06/02 10:46:20;;;;;;;5.53;1.50;;;;;;;;;;5093155;28;20547;-58
2023/06/02 10:48:49;;;;;;;2.67;1.40;;;;;;;;;;5096620;28;20956;-58
2023/06/02 10:51:17;;;;;;;4.10;1.20;;;;;;;;;;5095971;28;20524;-58
2023/06/02 10:54:11;;;;;;;2.20;1.37;;;;;;;;;;5097639;28;20940;-58
2023/06/02 10:56:41;;;;;;;1.50;1.00;;;;;;;;;;5084468;28;20542;-58
2023/06/02 10:59:08;;;;;;;2.37;1.40;;;;;;;;;;5098926;28;20484;-58
2023/06/02 11:01:45;;;;;;;5.83;1.70;;;;;;;;;;5097909;28;20532;-58
2023/06/02 11:04:26;;;;;;;2.27;1.30;;;;;;;;;;5106392;28;21004;-60
2023/06/02 11:07:12;;;;;;;2.17;1.20;;;;;;;;;;5100191;28;20808;-59
2023/06/02 11:09:42;;;;;;;3.10;1.20;;;;;;;;;;5086830;28;20953;-58
2023/06/02 11:12:09;;;;;;;2.13;1.30;;;;;;;;;;5114149;28;20504;-58
2023/06/02 11:14:51;;;;;;;4.13;1.60;;;;;;;;;;5102676;28;20528;-58
2023/06/02 11:17:29;;;;;;;2.80;1.27;;;;;;;;;;5112170;28;20513;-58
2023/06/02 11:19:58;;;;;;;4.23;1.37;;;;;;;;;;5104005;28;20490;-58
2023/06/02 11:22:25;;;;;;;2.27;1.40;;;;;;;;;;5104116;28;20448;-58
2023/06/02 11:24:52;;;;;;;2.83;1.10;;;;;;;;;;5101902;28;20445;-58
2023/06/02 11:27:20;;;;;;;2.80;1.50;;;;;;;;;;5112350;28;20465;-58
2023/06/02 11:29:47;;;;;;;1.77;1.37;;;;;;;;;;5088488;28;20449;-58
2023/06/02 11:32:16;;;;;;;3.40;1.50;;;;;;;;;;5115917;28;20975;-59
2023/06/02 11:34:43;;;;;;;1.90;1.30;;;;;;;;;;5101508;28;20469;-58
2023/06/02 11:37:16;;;;;;;2.47;1.27;;;;;;;;;;5112306;28;20448;-58
2023/06/02 11:39:53;;;;;;;2.27;1.10;;;;;;;;;;5094986;28;20512;-58
2023/06/02 11:42:20;;;;;;;2.30;1.67;;;;;;;;;;5094651;28;20529;-58
2023/06/02 11:44:50;;;;;;;3.13;1.40;;;;;;;;;;5095022;28;20532;-59
2023/06/02 11:47:20;;;;;;;1.63;1.17;;;;;;;;;;5094870;28;20526;-59
2023/06/02 11:49:47;;;;;;;1.40;1.20;;;;;;;;;;5092667;28;20441;-58
2023/06/02 11:52:16;;;;;;;4.13;1.50;;;;;;;;;;5094867;28;20457;-59
2023/06/02 11:54:50;;;;;;;2.17;1.30;;;;;;;;;;5094462;28;20453;-59
2023/06/02 11:57:25;;;;;;;2.77;1.57;;;;;;;;;;5094245;28;20448;-59
2023/06/02 12:00:09;;;;;;;2.20;1.10;;;;;;;;;;5092921;28;20453;-58
2023/06/02 12:02:36;;;;;;;2.40;1.40;;;;;;;;;;5093595;28;20624;-58
2023/06/02 12:05:03;;;;;;;3.57;1.20;;;;;;;;;;5094285;28;20493;-58
2023/06/02 12:07:34;;;;;;;2.83;1.50;;;;;;;;;;5094461;28;21033;-58
2023/06/02 12:10:03;;;;;;;3.43;1.07;;;;;;;;;;5094527;28;20498;-58
2023/06/02 12:12:31;;;;;;;2.30;0.90;;;;;;;;;;5094323;28;20913;-59
2023/06/02 12:14:57;;;;;;;2.17;1.17;;;;;;;;;;5094810;28;20450;-58
2023/06/02 12:17:26;;;;;;;2.00;0.90;;;;;;;;;;5094782;28;21120;-57
2023/06/02 12:19:59;;;;;;;1.10;1.00;;;;;;;;;;5094628;28;20521;-58
2023/06/02 12:22:27;;;;;;;2.23;1.00;;;;;;;;;;5094641;28;20484;-58
2023/06/02 12:24:55;;;;;;;3.23;1.83;;;;;;;;;;5093214;28;20964;-58
2023/06/02 12:27:22;;;;;;;4.00;1.93;;;;;;;;;;5094634;28;20449;-58
2023/06/02 12:29:49;;;;;;;3.17;1.00;;;;;;;;;;5094560;28;20450;-58
2023/06/02 12:32:25;;;;;;;2.70;1.10;;;;;;;;;;5094473;28;21047;-62
2023/06/02 12:34:52;;;;;;;1.33;1.23;;;;;;;;;;5094488;28;20446;-58
2023/06/02 12:37:19;;;;;;;10.80;2.53;;;;;;;;;;5093137;28;20457;-58
2023/06/02 12:39:46;;;;;;;4.03;1.30;;;;;;;;;;5094250;28;20481;-58
2023/06/02 12:42:16;;;;;;;1.23;1.13;;;;;;;;;;5094400;28;20961;-58
2023/06/02 12:44:43;;;;;;;20.57;6.30;;;;;;;;;;5094240;28;20454;-58
2023/06/02 12:47:10;;;;;;;2.93;1.90;;;;;;;;;;5094143;28;20639;-58
2023/06/02 12:49:38;;;;;;;3.00;1.60;;;;;;;;;;5094348;28;20457;-58
2023/06/02 12:52:05;;;;;;;1.40;1.23;;;;;;;;;;5094310;28;20473;-57
2023/06/02 12:54:32;;;;;;;2.33;1.20;;;;;;;;;;5094130;28;20538;-57
2023/06/02 12:56:59;;;;;;;3.80;1.20;;;;;;;;;;5093830;28;21021;-57
2023/06/02 12:59:27;;;;;;;6.17;1.47;;;;;;;;;;5093773;28;20921;-58
2023/06/02 13:01:55;;;;;;;1.70;1.10;;;;;;;;;;5094069;28;20454;-58
2023/06/02 13:04:22;;;;;;;1.40;1.13;;;;;;;;;;5094087;28;20460;-58
2023/06/02 13:06:49;;;;;;;2.83;1.30;;;;;;;;;;5093882;28;20496;-58
2023/06/02 13:09:16;;;;;;;3.87;1.43;;;;;;;;;;5093616;28;20479;-58
2023/06/02 13:11:46;;;;;;;3.40;1.00;;;;;;;;;;5093716;28;20544;-58
2023/06/02 13:14:14;;;;;;;1.87;1.40;;;;;;;;;;5093983;28;20451;-58
2023/06/02 13:16:42;;;;;;;1.30;1.00;;;;;;;;;;5093518;28;20872;-58
2023/06/02 13:19:09;;;;;;;8.93;1.20;;;;;;;;;;5093449;28;20573;-58
2023/06/02 13:21:36;;;;;;;2.17;0.97;;;;;;;;;;5093231;28;20791;-58
2023/06/02 13:24:03;;;;;;;1.77;1.23;;;;;;;;;;5092262;28;20926;-58
2023/06/02 13:26:30;;;;;;;4.47;1.30;;;;;;;;;;5093305;28;20587;-58
2023/06/02 13:28:58;;;;;;;2.27;1.33;;;;;;;;;;5093612;28;20458;-59
2023/06/02 13:31:25;;;;;;;2.77;1.23;;;;;;;;;;5093380;28;20453;-59
2023/06/02 13:33:53;;;;;;;1.23;0.70;;;;;;;;;;5093439;28;20541;-58
2023/06/02 13:36:20;;;;;;;2.60;1.30;;;;;;;;;;5093461;28;20447;-58
2023/06/02 13:38:47;;;;;;;1.20;0.80;;;;;;;;;;5093197;28;21053;-58
2023/06/02 13:41:14;;;;;;;1.20;0.90;;;;;;;;;;5093398;28;20922;-58
2023/06/02 13:43:41;;;;;;;3.53;0.80;;;;;;;;;;5093471;28;20454;-57
2023/06/02 13:46:08;;;;;;;1.00;0.87;;;;;;;;;;5093267;28;21026;-57
2023/06/02 13:48:35;;;;;;;2.23;1.10;;;;;;;;;;5092067;28;20463;-57
2023/06/02 13:51:03;;;;;;;2.20;0.90;;;;;;;;;;5093075;28;20929;-58
2023/06/02 13:53:32;;;;;;;2.07;0.90;;;;;;;;;;5093096;28;21052;-58
2023/06/02 13:55:59;;;;;;;3.77;0.80;;;;;;;;;;5092871;28;20481;-58
2023/06/02 13:58:29;;;;;;;3.90;0.90;;;;;;;;;;5091300;28;20536;-58
2023/06/02 14:00:56;;;;;;;1.40;0.77;;;;;;;;;;5092664;28;20910;-58
2023/06/02 14:03:23;;;;;;;2.53;1.00;;;;;;;;;;5092257;28;21012;-58
2023/06/02 14:05:50;;;;;;;2.50;1.57;;;;;;;;;;5092758;28;20455;-58
2023/06/02 14:08:18;;;;;;;0.90;0.80;;;;;;;;;;5092480;28;20941;-59
2023/06/02 14:10:45;;;;;;;2.03;0.80;;;;;;;;;;5092636;28;20541;-59
2023/06/02 14:13:12;;;;;;;2.00;1.00;;;;;;;;;;5092496;28;20478;-59
2023/06/02 14:15:39;;;;;;;1.33;0.90;;;;;;;;;;5092625;28;20457;-60
2023/06/02 14:18:06;;;;;;;1.83;0.90;;;;;;;;;;5092340;28;20545;-59
2023/06/02 14:20:33;;;;;;;1.10;0.90;;;;;;;;;;5092001;28;20584;-59
2023/06/02 14:23:00;;;;;;;2.10;0.77;;;;;;;;;;5092977;28;20553;-59
2023/06/02 14:25:28;;;;;;;3.57;0.90;;;;;;;;;;5092835;28;20454;-59
2023/06/02 14:27:55;;;;;;;2.10;1.00;;;;;;;;;;5092677;28;20457;-59
2023/06/02 14:30:23;;;;;;;4.33;0.80;;;;;;;;;;5092624;28;21017;-59
2023/06/02 14:32:50;;;;;;;3.13;1.27;;;;;;;;;;5092445;28;20486;-60
2023/06/02 14:35:17;;;;;;;4.40;0.90;;;;;;;;;;5092465;28;20486;-59
2023/06/02 14:37:44;;;;;;;4.23;1.00;;;;;;;;;;5092327;28;20447;-59
2023/06/02 14:40:12;;;;;;;2.00;1.20;;;;;;;;;;5092673;28;20492;-58
2023/06/02 14:42:40;;;;;;;3.10;0.80;;;;;;;;;;5092578;28;20537;-59